Time;durP1;ratioP1;P1;durP2;ratioP2;P2;SDS_P1;SDS_P2;PMS_P1;PMS_P2;Temp;Humidity;BMP_temperature;BMP_pressure;BME280_temperature;BME280_humidity;BME280_pressure;Samples;Min_cycle;Max_cycle;Signal;HPM_P1;HPM_P2
2024/01/16 00:00:34;;;;;;;3.80;2.67;;;;;;;15.79;41.52;92159.13;4999429;28;20435;-86
2024/01/16 00:02:59;;;;;;;5.40;3.40;;;;;;;15.76;41.84;92160.91;4981711;28;20038;-85
2024/01/16 00:05:27;;;;;;;4.38;3.45;;;;;;;15.72;41.93;92161.22;4948823;28;20046;-85
2024/01/16 00:07:53;;;;;;;3.72;2.80;;;;;;;15.79;42.02;92164.56;4954178;28;20042;-87
2024/01/16 00:10:18;;;;;;;4.05;2.92;;;;;;;15.75;41.58;92160.16;4968416;28;20471;-88
2024/01/16 00:12:44;;;;;;;4.18;3.35;;;;;;;15.79;41.53;92159.84;4949882;28;20053;-85
2024/01/16 00:15:10;;;;;;;4.50;3.45;;;;;;;15.74;41.41;92168.84;4980801;28;20389;-85
2024/01/16 00:17:35;;;;;;;5.22;3.20;;;;;;;15.77;41.13;92167.81;4979410;28;20038;-88
2024/01/16 00:20:01;;;;;;;3.30;2.78;;;;;;;15.76;41.21;92166.34;4950018;28;20042;-85
2024/01/16 00:22:27;;;;;;;4.13;3.33;;;;;;;15.79;41.39;92172.75;4952320;28;20031;-87
2024/01/16 00:24:52;;;;;;;3.63;2.90;;;;;;;15.77;41.62;92167.81;4953136;28;20047;-85
2024/01/16 00:27:18;;;;;;;3.38;2.92;;;;;;;15.71;41.44;92167.91;4955017;28;20046;-86
2024/01/16 00:29:43;;;;;;;4.05;2.72;;;;;;;15.79;41.86;92184.38;4959265;28;20408;-85
2024/01/16 00:32:09;;;;;;;4.40;3.03;;;;;;;15.76;41.69;92177.25;4970645;28;20038;-89
2024/01/16 00:34:34;;;;;;;4.78;2.95;;;;;;;15.79;41.20;92181.66;4953340;28;20125;-89
2024/01/16 00:36:59;;;;;;;3.33;2.83;;;;;;;15.74;41.51;92185.22;4997582;28;20084;-86
2024/01/16 00:39:25;;;;;;;4.70;2.95;;;;;;;15.69;41.65;92173.16;4972118;28;20042;-86
2024/01/16 00:41:51;;;;;;;3.30;2.63;;;;;;;15.77;41.08;92184.91;5016601;28;20507;-85
2024/01/16 00:44:16;;;;;;;3.35;2.67;;;;;;;15.68;41.64;92185.31;4951213;28;20039;-87
2024/01/16 00:46:42;;;;;;;4.78;3.03;;;;;;;15.70;42.00;92188.25;4956834;28;20863;-86
2024/01/16 00:49:07;;;;;;;4.25;2.55;;;;;;;15.69;41.99;92177.88;4985795;28;20704;-85
2024/01/16 00:51:33;;;;;;;3.83;3.10;;;;;;;15.76;41.16;92193.59;4988600;28;20530;-85
2024/01/16 00:53:58;;;;;;;3.72;3.03;;;;;;;15.73;41.27;92200.81;4956206;28;20085;-87
2024/01/16 00:56:26;;;;;;;3.90;2.70;;;;;;;15.73;41.58;92208.25;4992057;28;20045;-89
2024/01/16 00:58:53;;;;;;;4.18;2.50;;;;;;;15.77;40.97;92192.34;4972523;28;20045;-85
2024/01/16 01:01:19;;;;;;;2.35;2.15;;;;;;;15.79;41.29;92213.63;4969355;28;20046;-90
2024/01/16 01:03:44;;;;;;;4.05;2.97;;;;;;;15.74;42.46;92212.44;4967179;28;20035;-85
2024/01/16 01:06:10;;;;;;;3.67;2.55;;;;;;;15.77;41.67;92212.16;4991917;28;20492;-86
2024/01/16 01:08:35;;;;;;;3.80;2.40;;;;;;;15.77;41.03;92217.59;4966043;28;20698;-87
2024/01/16 01:11:01;;;;;;;3.72;2.70;;;;;;;15.73;41.56;92225.34;4984934;28;20034;-84
2024/01/16 01:13:26;;;;;;;2.50;2.20;;;;;;;15.79;40.96;92222.53;5000616;28;20440;-85
2024/01/16 01:15:51;;;;;;;4.78;2.75;;;;;;;15.76;41.27;92229.75;5001538;28;20046;-85
2024/01/16 01:18:17;;;;;;;3.15;2.30;;;;;;;15.74;41.03;92224.09;4995273;28;20087;-85
2024/01/16 01:20:42;;;;;;;3.40;2.50;;;;;;;15.69;41.95;92235.06;4969824;28;20042;-85
2024/01/16 01:23:08;;;;;;;2.78;2.35;;;;;;;15.72;41.09;92218.41;4983942;28;20049;-86
2024/01/16 01:25:34;;;;;;;3.45;2.38;;;;;;;15.70;42.11;92223.66;4993710;28;20478;-85
2024/01/16 01:28:00;;;;;;;3.65;2.45;;;;;;;15.75;41.41;92233.00;4992723;28;20034;-85
2024/01/16 01:30:25;;;;;;;2.95;2.20;;;;;;;15.76;41.28;92234.47;4948952;28;20066;-84
2024/01/16 01:32:51;;;;;;;2.53;2.28;;;;;;;15.76;41.28;92232.47;4965275;28;20135;-87
2024/01/16 01:35:17;;;;;;;3.58;2.45;;;;;;;15.79;41.67;92241.59;4994973;28;20385;-89
2024/01/16 01:37:43;;;;;;;2.47;1.80;;;;;;;15.71;41.98;92249.66;4959853;28;20034;-85
2024/01/16 01:40:09;;;;;;;3.08;2.30;;;;;;;15.70;42.26;92250.16;4970486;28;20053;-86
2024/01/16 01:42:34;;;;;;;2.72;2.17;;;;;;;15.75;40.93;92241.91;4983637;28;20034;-88
2024/01/16 01:45:00;;;;;;;3.00;2.50;;;;;;;15.78;41.26;92248.31;4963899;28;20034;-86
2024/01/16 01:47:25;;;;;;;3.13;2.20;;;;;;;15.75;41.20;92255.53;4982307;28;20042;-85
2024/01/16 01:49:51;;;;;;;2.80;2.10;;;;;;;15.72;41.98;92255.81;4988091;28;20042;-85
2024/01/16 01:52:17;;;;;;;2.53;2.13;;;;;;;15.80;41.18;92264.13;4977560;28;20088;-85
2024/01/16 01:54:43;;;;;;;2.22;1.98;;;;;;;15.80;41.34;92261.41;4994085;28;20038;-87
2024/01/16 01:57:08;;;;;;;2.72;2.15;;;;;;;15.75;41.20;92260.97;4984825;28;20030;-86
2024/01/16 01:59:34;;;;;;;2.60;1.75;;;;;;;15.81;41.21;92249.97;5010014;28;20038;-87
2024/01/16 02:01:59;;;;;;;2.58;2.15;;;;;;;15.77;40.98;92258.47;4982112;28;20043;-86
2024/01/16 02:04:25;;;;;;;3.15;2.03;;;;;;;15.80;41.06;92261.41;4994970;28;20488;-85
2024/01/16 02:06:50;;;;;;;2.75;1.90;;;;;;;15.84;41.05;92270.00;4972405;28;20121;-86
2024/01/16 02:09:16;;;;;;;2.40;1.95;;;;;;;15.72;41.59;92264.00;4974279;28;20456;-86
2024/01/16 02:11:42;;;;;;;2.92;2.08;;;;;;;15.72;41.44;92269.44;4987766;28;20431;-85
2024/01/16 02:14:07;;;;;;;2.65;1.90;;;;;;;15.69;41.38;92265.03;4968657;28;20030;-89
2024/01/16 02:16:40;;;;;;;3.47;2.17;;;;;;;15.68;41.61;92266.28;4974278;28;20038;-88
2024/01/16 02:19:07;;;;;;;2.33;2.03;;;;;;;15.75;41.14;92263.69;4999034;28;20615;-85
2024/01/16 02:21:39;;;;;;;2.25;1.65;;;;;;;15.77;41.26;92272.09;4987803;28;20128;-85
2024/01/16 02:24:07;;;;;;;3.20;1.98;;;;;;;15.75;40.86;92266.44;4972826;28;20081;-85
2024/01/16 02:26:32;;;;;;;2.47;1.90;;;;;;;15.82;41.38;92256.88;4968966;28;20042;-88
2024/01/16 02:29:02;;;;;;;2.20;1.70;;;;;;;15.71;41.37;92266.00;4983810;28;20084;-84
2024/01/16 02:31:27;;;;;;;1.65;1.40;;;;;;;15.76;40.89;92267.91;5004019;28;20810;-85
2024/01/16 02:33:53;;;;;;;2.35;1.75;;;;;;;15.68;42.02;92272.47;4992909;28;20038;-87
2024/01/16 02:36:18;;;;;;;1.95;1.63;;;;;;;15.68;41.59;92277.94;4990684;28;20347;-84
2024/01/16 02:38:44;;;;;;;2.72;1.77;;;;;;;15.76;41.41;92270.63;4986696;28;20050;-86
2024/01/16 02:41:11;;;;;;;3.38;2.00;;;;;;;15.66;41.69;92263.34;4971155;28;20038;-84
2024/01/16 02:43:37;;;;;;;4.72;1.77;;;;;;;15.67;41.61;92273.72;4972023;28;20057;-87
2024/01/16 02:46:02;;;;;;;2.85;1.98;;;;;;;15.70;41.65;92269.22;4989676;28;20068;-87
2024/01/16 02:48:28;;;;;;;1.90;1.70;;;;;;;15.67;41.01;92276.47;4990996;28;20037;-85
2024/01/16 02:50:53;;;;;;;2.17;1.80;;;;;;;15.73;40.95;92277.09;4975198;28;20038;-84
2024/01/16 02:53:20;;;;;;;1.70;1.38;;;;;;;15.68;41.53;92288.81;4959774;28;20507;-85
2024/01/16 02:55:45;;;;;;;2.05;1.60;;;;;;;15.72;40.90;92285.81;4975287;28;20034;-86
2024/01/16 02:58:10;;;;;;;2.80;1.80;;;;;;;15.64;41.86;92284.94;4973413;28;20048;-87
2024/01/16 03:00:37;;;;;;;2.97;2.00;;;;;;;15.71;41.10;92287.78;4979000;28;20045;-86
2024/01/16 03:03:02;;;;;;;2.80;1.90;;;;;;;15.69;41.36;92284.84;4974599;28;20030;-88
2024/01/16 03:05:28;;;;;;;2.15;1.48;;;;;;;15.76;41.17;92297.88;5006244;28;20407;-84
2024/01/16 03:07:53;;;;;;;2.10;1.90;;;;;;;15.66;41.67;92302.22;4987200;28;20031;-85
2024/01/16 03:10:19;;;;;;;3.00;1.80;;;;;;;15.72;40.91;92294.72;4967519;28;20394;-85
2024/01/16 03:12:44;;;;;;;2.72;1.80;;;;;;;15.71;41.35;92297.94;4974494;28;20030;-85
2024/01/16 03:15:10;;;;;;;2.17;1.63;;;;;;;15.71;41.28;92311.56;4989352;28;20069;-85
2024/01/16 03:17:35;;;;;;;2.38;1.48;;;;;;;15.73;41.42;92311.78;5005712;28;20038;-86
2024/01/16 03:20:03;;;;;;;1.85;1.50;;;;;;;15.78;40.89;92324.59;4994014;28;20042;-84
2024/01/16 03:22:28;;;;;;;2.22;1.40;;;;;;;15.76;40.69;92319.66;5009142;28;20045;-85
2024/01/16 03:24:54;;;;;;;2.00;1.70;;;;;;;15.70;41.46;92323.72;4975538;28;20037;-84
2024/01/16 03:27:19;;;;;;;2.70;1.70;;;;;;;15.75;41.06;92318.19;4971693;28;20061;-86
2024/01/16 03:29:45;;;;;;;1.98;1.60;;;;;;;15.75;40.62;92306.56;4973792;28;20049;-85
2024/01/16 03:32:10;;;;;;;2.30;1.65;;;;;;;15.73;40.74;92309.06;4975999;28;20080;-85
2024/01/16 03:34:36;;;;;;;1.65;1.35;;;;;;;15.72;41.22;92307.59;4994850;28;20041;-85
2024/01/16 03:37:01;;;;;;;1.75;1.48;;;;;;;15.75;40.71;92301.09;5008346;28;20030;-87
2024/01/16 03:39:27;;;;;;;1.50;1.20;;;;;;;15.74;41.40;92294.94;4979179;28;20043;-86
2024/01/16 03:41:52;;;;;;;1.45;1.30;;;;;;;15.66;41.79;92310.41;4988771;28;20030;-85
2024/01/16 03:44:18;;;;;;;2.28;1.73;;;;;;;15.71;41.24;92314.31;5006990;28;20042;-89
2024/01/16 03:46:43;;;;;;;4.43;1.80;;;;;;;15.66;40.98;92313.13;4970571;28;20054;-85
2024/01/16 03:49:09;;;;;;;1.90;1.35;;;;;;;15.69;41.50;92320.25;5007581;28;20030;-85
2024/01/16 03:51:35;;;;;;;1.65;1.50;;;;;;;15.66;41.42;92306.94;4997772;28;20034;-87
2024/01/16 03:54:00;;;;;;;1.83;1.20;;;;;;;15.69;41.18;92322.25;4995621;28;20097;-86
2024/01/16 03:56:25;;;;;;;1.33;1.17;;;;;;;15.71;40.91;92325.94;4972352;28;20720;-86
2024/01/16 03:58:51;;;;;;;1.45;1.30;;;;;;;15.67;41.33;92333.66;4984048;28;20069;-87
2024/01/16 04:01:16;;;;;;;1.73;1.20;;;;;;;15.70;41.32;92335.34;4976014;28;20035;-84
2024/01/16 04:03:42;;;;;;;2.42;1.63;;;;;;;15.64;41.67;92331.97;4966521;28;20489;-84
2024/01/16 04:06:17;;;;;;;1.48;1.30;;;;;;;15.66;41.02;92347.81;4954903;28;20249;-86
2024/01/16 04:08:42;;;;;;;1.83;1.40;;;;;;;15.63;41.49;92343.38;4971021;28;20973;-87
2024/01/16 04:11:12;;;;;;;2.67;1.65;;;;;;;15.63;41.49;92340.66;4987237;28;20500;-84
2024/01/16 04:13:37;;;;;;;1.95;1.33;;;;;;;15.70;41.16;92353.69;4977224;28;20061;-89
2024/01/16 04:16:03;;;;;;;2.55;1.35;;;;;;;15.76;40.49;92357.06;4959023;28;20043;-86
2024/01/16 04:18:29;;;;;;;1.60;1.30;;;;;;;15.70;40.70;92365.31;4968871;28;20126;-87
2024/01/16 04:20:54;;;;;;;2.20;1.50;;;;;;;15.65;41.05;92354.50;4975140;28;20603;-85
2024/01/16 04:23:19;;;;;;;2.38;1.40;;;;;;;15.70;40.95;92362.59;4976150;28;20598;-87
2024/01/16 04:25:45;;;;;;;2.33;1.35;;;;;;;15.69;40.86;92372.03;4976658;28;20061;-87
2024/01/16 04:28:11;;;;;;;1.52;1.38;;;;;;;15.64;41.25;92364.66;4946789;28;20483;-86
2024/01/16 04:30:36;;;;;;;1.90;1.20;;;;;;;15.60;41.39;92375.13;4971955;28;20069;-85
2024/01/16 04:33:03;;;;;;;3.28;1.75;;;;;;;15.67;41.22;92369.09;4980690;28;20385;-87
2024/01/16 04:35:29;;;;;;;1.75;1.40;;;;;;;15.70;40.50;92378.94;4963468;28;20531;-86
2024/01/16 04:37:54;;;;;;;16.17;9.70;;;;;;;15.68;41.07;92378.00;4981669;28;20048;-89
2024/01/16 04:40:20;;;;;;;7.88;5.50;;;;;;;15.69;41.11;92376.75;4962574;28;20053;-87
2024/01/16 04:42:45;;;;;;;3.60;3.22;;;;;;;15.69;41.51;92384.91;4988627;28;20033;-88
2024/01/16 04:45:11;;;;;;;15.07;8.90;;;;;;;15.73;41.83;92383.38;4987496;28;20042;-87
2024/01/16 04:47:36;;;;;;;69.65;22.10;;;;;;;15.79;41.68;92390.72;4968705;28;20444;-87
2024/01/16 04:50:02;;;;;;;6.25;4.15;;;;;;;15.79;41.32;92402.38;4982391;28;20128;-85
2024/01/16 04:52:27;;;;;;;10.07;5.55;;;;;;;15.71;41.19;92404.94;5000996;28;20089;-87
2024/01/16 04:54:53;;;;;;;12.30;7.50;;;;;;;15.77;41.01;92402.88;4971731;28;20038;-85
2024/01/16 04:57:18;;;;;;;9.63;5.43;;;;;;;15.68;41.51;92402.50;4966828;28;20054;-87
2024/01/16 04:59:43;;;;;;;13.93;8.45;;;;;;;15.72;41.45;92403.69;4980919;28;20038;-89
2024/01/16 05:02:09;;;;;;;14.27;9.23;;;;;;;15.76;41.89;92406.13;4946413;28;20038;-88
2024/01/16 05:04:37;;;;;;;12.18;7.93;;;;;;;15.74;41.13;92398.47;4933995;28;20134;-86
2024/01/16 05:07:03;;;;;;;16.40;9.00;;;;;;;15.73;41.47;92405.16;4954771;28;20038;-86
2024/01/16 05:09:28;;;;;;;18.80;8.30;;;;;;;15.76;41.37;92395.97;4966000;28;20222;-85
2024/01/16 05:11:54;;;;;;;27.65;10.13;;;;;;;15.76;41.78;92400.66;4960675;28;20038;-85
2024/01/16 05:14:22;;;;;;;16.20;8.43;;;;;;;15.72;41.65;92420.03;4962920;28;20405;-87
2024/01/16 05:16:47;;;;;;;33.17;10.35;;;;;;;15.74;39.67;92416.81;4948306;28;20101;-86
2024/01/16 05:19:13;;;;;;;39.92;24.75;;;;;;;15.45;36.07;92423.84;4968441;28;20030;-85
2024/01/16 05:21:40;;;;;;;16.83;7.80;;;;;;;15.16;34.43;92413.81;4983061;28;20096;-86
2024/01/16 05:24:07;;;;;;;18.15;8.60;;;;;;;15.08;33.77;92406.25;4984482;28;20384;-87
2024/01/16 05:26:32;;;;;;;57.80;31.88;;;;;;;14.85;33.08;92417.88;4964131;28;20046;-85
2024/01/16 05:28:58;;;;;;;59.05;28.50;;;;;;;14.78;32.36;92413.00;4966770;28;20057;-85
2024/01/16 05:31:23;;;;;;;18.25;7.20;;;;;;;14.67;31.83;92416.59;4954225;28;20458;-86
2024/01/16 05:33:49;;;;;;;33.03;18.15;;;;;;;14.64;32.43;92431.94;4966243;28;20034;-87
2024/01/16 05:36:14;;;;;;;144.38;121.15;;;;;;;14.74;32.67;92419.47;4954149;28;20326;-89
2024/01/16 05:38:40;;;;;;;64.53;33.92;;;;;;;14.88;33.75;92419.59;4966021;28;20464;-85
2024/01/16 05:41:06;;;;;;;48.05;28.17;;;;;;;14.89;33.78;92419.09;4966727;28;20049;-85
2024/01/16 05:43:31;;;;;;;38.22;17.58;;;;;;;14.94;33.75;92428.44;4971538;28;21022;-86
2024/01/16 05:45:56;;;;;;;30.13;16.50;;;;;;;14.97;33.57;92430.84;4982188;28;20058;-86
2024/01/16 05:48:22;;;;;;;41.13;13.55;;;;;;;15.00;33.00;92426.38;4986158;28;20047;-85
2024/01/16 05:50:47;;;;;;;14.55;9.27;;;;;;;14.70;32.69;92442.78;4955366;28;20040;-84
2024/01/16 05:53:13;;;;;;;17.73;9.45;;;;;;;14.60;32.79;92436.19;4986923;28;20408;-85
2024/01/16 05:55:39;;;;;;;34.78;18.40;;;;;;;14.68;33.20;92440.56;4985132;28;20042;-84
2024/01/16 05:58:04;;;;;;;29.52;14.20;;;;;;;14.83;33.58;92450.31;4969682;28;20077;-88
2024/01/16 06:00:30;;;;;;;24.90;14.05;;;;;;;14.96;34.63;92447.69;4973245;28;20039;-87
2024/01/16 06:02:55;;;;;;;29.48;13.75;;;;;;;14.94;35.25;92450.22;4964196;28;20052;-84
2024/01/16 06:05:21;;;;;;;70.45;24.80;;;;;;;15.01;35.43;92442.19;4967701;28;20042;-85
2024/01/16 06:07:46;;;;;;;27.42;13.95;;;;;;;15.13;35.43;92450.97;4968398;28;20432;-85
2024/01/16 06:10:15;;;;;;;32.65;14.52;;;;;;;15.19;35.99;92454.34;4970298;28;20403;-85
2024/01/16 06:12:40;;;;;;;27.33;15.35;;;;;;;15.20;36.01;92455.84;4985208;28;20038;-85
2024/01/16 06:15:06;;;;;;;46.70;16.88;;;;;;;15.20;35.06;92455.84;4988370;28;20045;-87
2024/01/16 06:17:32;;;;;;;37.92;14.85;;;;;;;14.95;34.71;92454.38;4988264;28;20560;-86
2024/01/16 06:19:57;;;;;;;55.17;26.00;;;;;;;14.96;34.45;92444.97;4988459;28;20312;-85
2024/01/16 06:22:23;;;;;;;61.85;33.28;;;;;;;15.13;35.35;92466.56;4957812;28;20535;-85
2024/01/16 06:24:48;;;;;;;54.10;28.27;;;;;;;14.94;33.57;92456.34;4965309;28;20050;-87
2024/01/16 06:27:18;;;;;;;68.43;37.58;;;;;;;14.82;33.36;92468.63;4964167;28;20038;-88
2024/01/16 06:29:46;;;;;;;71.70;38.03;;;;;;;14.94;33.73;92469.25;4971610;28;20144;-89
2024/01/16 06:32:11;;;;;;;162.65;68.30;;;;;;;15.03;34.31;92464.19;4963037;28;20043;-88
2024/01/16 06:34:37;;;;;;;196.30;100.90;;;;;;;15.14;35.03;92465.31;4974095;28;20072;-86
2024/01/16 06:37:03;;;;;;;185.73;98.57;;;;;;;15.10;35.79;92473.78;4972279;28;20046;-87
2024/01/16 06:39:28;;;;;;;166.45;89.93;;;;;;;15.10;35.95;92479.22;4972593;28;20076;-85
2024/01/16 06:41:54;;;;;;;282.40;116.20;;;;;;;15.20;36.19;92480.34;4971100;28;20070;-84
2024/01/16 06:44:19;;;;;;;216.82;103.50;;;;;;;15.25;36.22;92490.44;4971999;28;20038;-85
2024/01/16 06:46:45;;;;;;;193.10;103.30;;;;;;;15.21;36.54;92491.97;5003822;28;20116;-84
2024/01/16 06:49:13;;;;;;;229.90;111.82;;;;;;;15.24;36.50;92499.09;4977606;28;20468;-86
2024/01/16 06:51:38;;;;;;;222.00;110.85;;;;;;;15.27;36.37;92496.09;4981552;28;20039;-84
2024/01/16 06:54:04;;;;;;;204.05;105.55;;;;;;;15.37;37.10;92493.78;4981544;28;20096;-86
2024/01/16 06:56:30;;;;;;;184.43;98.13;;;;;;;15.38;36.78;92495.97;4959228;28;20046;-86
2024/01/16 06:58:55;;;;;;;216.82;113.80;;;;;;;15.42;36.37;92490.97;4990887;28;20043;-88
2024/01/16 07:01:20;;;;;;;238.07;116.65;;;;;;;15.37;36.93;92499.94;5006527;28;20124;-87
2024/01/16 07:03:46;;;;;;;210.00;111.03;;;;;;;15.34;36.66;92500.25;4957491;28;20579;-86
2024/01/16 07:06:12;;;;;;;216.20;117.47;;;;;;;15.43;37.11;92505.31;4994261;28;20088;-88
2024/01/16 07:08:37;;;;;;;244.73;142.52;;;;;;;15.47;37.26;92511.22;4962872;28;20328;-86
2024/01/16 07:11:07;;;;;;;197.75;106.00;;;;;;;15.59;38.03;92512.56;4959531;28;20049;-86
2024/01/16 07:13:33;;;;;;;244.38;123.90;;;;;;;15.62;36.95;92516.25;4974646;28;20101;-87
2024/01/16 07:15:58;;;;;;;225.27;118.15;;;;;;;15.56;37.31;92516.34;4999327;28;20561;-86
2024/01/16 07:18:24;;;;;;;200.25;108.57;;;;;;;15.58;37.54;92513.84;4964193;28;20404;-83
2024/01/16 07:20:49;;;;;;;166.52;94.15;;;;;;;15.64;37.81;92521.94;4977306;28;20035;-87
2024/01/16 07:23:15;;;;;;;158.77;87.22;;;;;;;15.60;37.55;92519.50;4995037;28;20404;-89
2024/01/16 07:25:40;;;;;;;186.13;101.55;;;;;;;15.60;37.77;92514.06;4977112;28;20427;-89
2024/01/16 07:28:06;;;;;;;223.70;122.25;;;;;;;15.59;37.67;92520.75;4989766;28;20047;-87
2024/01/16 07:30:31;;;;;;;250.60;141.02;;;;;;;15.58;37.62;92524.75;4967887;28;20049;-89
2024/01/16 07:32:57;;;;;;;308.05;173.23;;;;;;;15.55;37.59;92520.28;4949831;28;20470;-86
2024/01/16 07:35:22;;;;;;;311.88;172.40;;;;;;;15.58;37.65;92529.47;4971024;28;20042;-90
2024/01/16 07:37:48;;;;;;;360.20;193.05;;;;;;;15.57;37.62;92523.28;5001882;28;20064;-88
2024/01/16 07:40:14;;;;;;;319.50;182.45;;;;;;;15.60;38.20;92533.13;4958337;28;20034;-87
2024/01/16 07:42:40;;;;;;;324.88;187.48;;;;;;;15.56;38.45;92531.97;4987338;28;20144;-88
2024/01/16 07:45:08;;;;;;;318.42;184.52;;;;;;;15.53;38.55;92530.22;4992288;28;20042;-87
2024/01/16 07:47:36;;;;;;;381.20;216.13;;;;;;;15.57;38.38;92527.97;4967629;28;20053;-88
2024/01/16 07:50:01;;;;;;;332.48;183.98;;;;;;;15.61;38.93;92534.59;4966930;28;20049;-89
2024/01/16 07:52:30;;;;;;;358.00;200.60;;;;;;;15.66;38.60;92544.69;4958455;28;20160;-88
2024/01/16 07:54:55;;;;;;;321.38;188.13;;;;;;;15.68;38.99;92538.72;4979972;28;20034;-87
2024/01/16 07:57:21;;;;;;;309.73;173.80;;;;;;;15.67;39.10;92529.09;4970798;28;20034;-88
2024/01/16 07:59:47;;;;;;;303.73;174.43;;;;;;;15.62;39.49;92536.06;4988413;28;20034;-89
2024/01/16 08:02:12;;;;;;;306.85;163.98;;;;;;;15.66;38.85;92539.25;4970755;28;20050;-89
2024/01/16 08:04:38;;;;;;;294.52;155.48;;;;;;;15.63;38.81;92534.09;4968649;28;20061;-88
2024/01/16 08:07:03;;;;;;;226.18;124.53;;;;;;;15.52;37.33;92532.22;4969502;28;20034;-88
2024/01/16 08:09:29;;;;;;;250.57;133.13;;;;;;;15.41;38.11;92537.78;4973129;28;20042;-87
2024/01/16 08:11:54;;;;;;;283.55;140.25;;;;;;;15.56;38.01;92540.88;4982760;28;20046;-88
2024/01/16 08:14:20;;;;;;;274.85;141.68;;;;;;;15.47;38.55;92538.44;4970740;28;20415;-89
2024/01/16 08:16:45;;;;;;;207.63;101.05;;;;;;;15.41;37.33;92527.63;4971188;28;20756;-88
2024/01/16 08:19:10;;;;;;;226.55;110.65;;;;;;;15.36;38.04;92538.59;4969510;28;20855;-87
2024/01/16 08:21:36;;;;;;;219.73;104.30;;;;;;;15.47;37.87;92532.28;4970142;28;20038;-87
2024/01/16 08:24:02;;;;;;;207.10;109.18;;;;;;;15.46;38.48;92530.78;4970244;28;20382;-90
2024/01/16 08:26:28;;;;;;;204.90;106.90;;;;;;;15.43;38.51;92535.28;4983589;28;20097;-89
2024/01/16 08:28:54;;;;;;;210.80;112.45;;;;;;;15.47;38.40;92529.53;4988835;28;20042;-89
2024/01/16 08:31:21;;;;;;;167.95;91.78;;;;;;;15.39;37.38;92535.56;4968716;28;20121;-88
2024/01/16 08:33:48;;;;;;;177.07;90.18;;;;;;;15.35;37.78;92526.97;4973913;28;20056;-88
2024/01/16 08:36:15;;;;;;;191.60;100.18;;;;;;;15.33;38.37;92539.63;4989758;28;20053;-89
2024/01/16 08:38:40;;;;;;;190.00;92.57;;;;;;;15.48;38.33;92539.94;4986526;28;20045;-89
2024/01/16 08:41:06;;;;;;;178.70;96.85;;;;;;;15.53;38.83;92530.22;4969693;28;20034;-89
2024/01/16 08:43:33;;;;;;;168.98;88.28;;;;;;;15.56;38.75;92529.97;4970091;28;20050;-90
2024/01/16 08:46:02;;;;;;;125.80;66.90;;;;;;;15.48;36.93;92529.03;4991362;28;20049;-90
2024/01/16 08:48:27;;;;;;;123.85;70.47;;;;;;;15.47;37.32;92538.44;4951682;28;20046;-90
2024/01/16 08:50:54;;;;;;;134.77;71.55;;;;;;;15.50;37.86;92532.00;4971654;28;20045;-88
2024/01/16 08:53:23;;;;;;;145.13;75.78;;;;;;;15.51;38.00;92525.28;4984828;28;20133;-88
2024/01/16 08:55:50;;;;;;;138.48;72.28;;;;;;;15.55;38.32;92527.72;4984255;28;20165;-89
2024/01/16 08:58:15;;;;;;;132.90;69.18;;;;;;;15.59;38.22;92523.47;4992363;28;20050;-89
2024/01/16 09:00:41;;;;;;;140.70;74.10;;;;;;;15.64;38.45;92519.94;5002205;28;20042;-89
2024/01/16 09:03:10;;;;;;;112.18;65.88;;;;;;;15.59;38.48;92528.91;4953607;28;20046;-89
2024/01/16 09:05:38;;;;;;;123.10;68.05;;;;;;;15.62;38.34;92533.34;4986742;28;20045;-88
2024/01/16 09:08:04;;;;;;;132.18;69.40;;;;;;;15.65;38.51;92543.22;4973979;28;20151;-89
2024/01/16 09:10:31;;;;;;;115.50;63.17;;;;;;;15.66;38.27;92544.69;4968729;28;20674;-88
2024/01/16 09:12:57;;;;;;;120.68;59.95;;;;;;;15.70;38.59;92541.69;4992532;28;20054;-89
2024/01/16 09:15:22;;;;;;;103.57;60.17;;;;;;;15.65;38.50;92551.41;4970861;28;20057;-88
2024/01/16 09:17:48;;;;;;;121.90;65.75;;;;;;;15.70;38.36;92545.16;4964093;28;20038;-88
2024/01/16 09:20:13;;;;;;;102.50;59.33;;;;;;;15.67;38.36;92550.88;4954678;28;20657;-86
2024/01/16 09:22:39;;;;;;;103.53;55.83;;;;;;;15.72;38.50;92539.91;4996876;28;20041;-88
2024/01/16 09:25:05;;;;;;;109.57;60.78;;;;;;;15.72;38.44;92550.81;4981639;28;20034;-89
2024/01/16 09:27:31;;;;;;;114.05;69.03;;;;;;;15.71;38.38;92545.88;4996863;28;20077;-89
2024/01/16 09:29:59;;;;;;;111.38;67.03;;;;;;;15.72;38.78;92558.25;4958729;28;20038;-89
2024/01/16 09:32:24;;;;;;;108.60;62.45;;;;;;;15.71;38.91;92554.78;4988434;28;20042;-90
2024/01/16 09:34:50;;;;;;;104.05;58.85;;;;;;;15.74;38.79;92548.31;4958524;28;20035;-88
2024/01/16 09:37:15;;;;;;;97.97;58.17;;;;;;;15.70;38.67;92550.59;4949712;28;20042;-88
2024/01/16 09:39:41;;;;;;;97.03;57.72;;;;;;;15.68;38.67;92553.09;4987364;28;20061;-88
2024/01/16 09:42:06;;;;;;;90.53;54.45;;;;;;;15.73;38.79;92549.56;4963036;28;20044;-88
2024/01/16 09:44:34;;;;;;;97.22;55.65;;;;;;;15.77;38.92;92550.03;4989570;28;20104;-90
2024/01/16 09:47:01;;;;;;;93.22;53.92;;;;;;;15.79;38.73;92546.78;4969821;28;20479;-88
2024/01/16 09:49:27;;;;;;;98.68;54.83;;;;;;;15.77;38.96;92552.00;4976220;28;20121;-89
2024/01/16 09:51:53;;;;;;;126.70;63.65;;;;;;;15.79;39.04;92543.31;4979398;28;20045;-90
2024/01/16 09:54:18;;;;;;;135.82;73.35;;;;;;;15.76;38.96;92548.56;4970168;28;20031;-88
2024/01/16 09:56:45;;;;;;;145.32;79.05;;;;;;;15.83;39.39;92551.91;4964936;28;20048;-88
2024/01/16 09:59:12;;;;;;;163.68;91.45;;;;;;;15.83;38.93;92549.94;4986021;28;20105;-87
2024/01/16 10:01:38;;;;;;;126.00;67.22;;;;;;;15.65;38.52;92553.38;5002845;28;20088;-88
2024/01/16 10:04:03;;;;;;;151.18;82.55;;;;;;;15.64;39.09;92541.00;4953545;28;20465;-88
2024/01/16 10:06:29;;;;;;;198.73;107.85;;;;;;;15.74;39.19;92545.59;4977601;28;20056;-88
2024/01/16 10:08:55;;;;;;;195.48;112.32;;;;;;;15.81;39.13;92536.09;4974351;28;20027;-87
2024/01/16 10:11:21;;;;;;;201.40;109.63;;;;;;;15.76;39.11;92545.81;4982758;28;20038;-88
2024/01/16 10:13:47;;;;;;;204.65;113.53;;;;;;;15.81;39.02;92538.81;4997403;28;20577;-88
2024/01/16 10:16:13;;;;;;;198.02;110.38;;;;;;;15.84;39.18;92542.50;4955257;28;20415;-87
2024/01/16 10:18:38;;;;;;;171.20;103.40;;;;;;;15.78;39.54;92548.03;4976094;28;20065;-88
2024/01/16 10:21:04;;;;;;;208.80;109.35;;;;;;;15.79;39.73;92543.31;4952823;28;20053;-88
2024/01/16 10:23:30;;;;;;;200.15;104.60;;;;;;;15.84;39.42;92537.78;4998659;28;20037;-87
2024/01/16 10:26:05;;;;;;;179.30;97.32;;;;;;;15.82;39.64;92537.56;4995590;28;20492;-87
2024/01/16 10:28:31;;;;;;;195.75;102.43;;;;;;;15.90;39.11;92537.72;5010783;28;20061;-88
2024/01/16 10:31:10;;;;;;;208.32;113.22;;;;;;;15.84;39.50;92531.59;4983111;28;20046;-88
2024/01/16 10:33:39;;;;;;;232.85;121.53;;;;;;;15.84;39.55;92528.88;4974403;28;20038;-89
2024/01/16 10:36:20;;;;;;;215.48;116.85;;;;;;;15.87;39.50;92525.84;4974248;28;20037;-88
2024/01/16 10:38:46;;;;;;;182.27;100.60;;;;;;;15.72;39.52;92520.13;4965957;28;20109;-88
2024/01/16 10:41:14;;;;;;;190.73;106.63;;;;;;;15.83;39.87;92524.66;5019691;28;20683;-88
2024/01/16 10:43:40;;;;;;;184.82;105.80;;;;;;;15.85;39.82;92520.19;4997449;28;20038;-89
2024/01/16 10:46:08;;;;;;;186.65;103.43;;;;;;;15.89;39.65;92526.09;5010521;28;20037;-89
2024/01/16 10:48:34;;;;;;;185.07;102.40;;;;;;;15.88;39.53;92529.31;5024902;28;20348;-89
2024/01/16 10:50:59;;;;;;;203.50;112.20;;;;;;;15.82;40.16;92512.28;4970490;28;20046;-88
2024/01/16 10:53:25;;;;;;;189.40;109.85;;;;;;;15.91;39.73;92528.28;4985127;28;20675;-90
2024/01/16 10:55:51;;;;;;;183.75;106.88;;;;;;;15.98;40.01;92520.28;4996630;28;20038;-88
2024/01/16 10:58:16;;;;;;;187.65;110.38;;;;;;;15.92;39.95;92522.31;4988860;28;20126;-90
2024/01/16 11:00:42;;;;;;;189.68;97.25;;;;;;;15.99;39.36;92501.94;5019975;28;20670;-89
2024/01/16 11:03:11;;;;;;;189.18;94.57;;;;;;;16.01;39.56;92504.88;4982951;28;20038;-89
2024/01/16 11:05:37;;;;;;;185.88;95.00;;;;;;;15.98;39.33;92514.81;5014096;28;20578;-90
2024/01/16 11:08:03;;;;;;;190.10;105.72;;;;;;;15.98;39.98;92514.81;5027659;28;20033;-89
2024/01/16 11:10:29;;;;;;;165.55;89.00;;;;;;;15.95;39.54;92517.84;4993867;28;20049;-89
2024/01/16 11:12:55;;;;;;;146.73;81.60;;;;;;;15.96;39.62;92519.31;5001295;28;20038;-89